AIB666 EDDH-EGLL
Flight info
| Callsign | AIB666 |
|---|---|
| Flight time | N/A |
| Altitude | 36000 |
| Route | WSN5C WSN N125 ITMIZ DCT ABNED L980 LOGAN LOGAN2H |
| Aircraft | A21N/M-SDE3FGHIRWY/LB1 |
Departure
| Time | 2026-05-06 12:16 |
|---|---|
| Airport | Hamburg Helmut Schmidt Airport (EDDH) |
Arrival
| Time | N/A |
|---|---|
| Airport | London Heathrow Airport (EGLL) |
| Time | Latitude | Longitude | Altitude | Speed | Heading |
|---|---|---|---|---|---|
| 2026-05-06 10:56 | 53.62472 | 10.00455 | 47 ft | 0 kts | 243° |
| 2026-05-06 11:38 | 53.62471 | 10.00453 | 47 ft | 0 kts | 243° |
| 2026-05-06 11:38 | 53.62470 | 10.00448 | 47 ft | 0 kts | 243° |
| 2026-05-06 11:39 | 53.62468 | 10.00441 | 47 ft | 0 kts | 242° |
| 2026-05-06 11:39 | 53.62472 | 10.00454 | 47 ft | 2 kts | 244° |
| 2026-05-06 11:39 | 53.62478 | 10.00477 | 48 ft | 2 kts | 242° |
| 2026-05-06 11:40 | 53.62482 | 10.00502 | 48 ft | 2 kts | 277° |
| 2026-05-06 11:40 | 53.62477 | 10.00526 | 48 ft | 2 kts | 305° |
| 2026-05-06 11:40 | 53.62468 | 10.00542 | 48 ft | 0 kts | 329° |
| 2026-05-06 11:40 | 53.62462 | 10.00547 | 48 ft | 1 kts | 333° |
| 2026-05-06 11:41 | 53.62461 | 10.00548 | 48 ft | 0 kts | 333° |
| 2026-05-06 11:41 | 53.62461 | 10.00547 | 48 ft | 0 kts | 333° |
| 2026-05-06 11:51 | 53.62465 | 10.00544 | 48 ft | 1 kts | 333° |
| 2026-05-06 11:52 | 53.62488 | 10.00525 | 48 ft | 5 kts | 332° |
| 2026-05-06 11:52 | 53.62533 | 10.00483 | 47 ft | 9 kts | 332° |
| 2026-05-06 11:52 | 53.62563 | 10.00456 | 46 ft | 0 kts | 332° |
| 2026-05-06 11:53 | 53.62565 | 10.00455 | 46 ft | 1 kts | 332° |
| 2026-05-06 11:54 | 53.62574 | 10.00447 | 46 ft | 0 kts | 332° |
| 2026-05-06 11:56 | 53.62586 | 10.00434 | 46 ft | 3 kts | 316° |
| 2026-05-06 11:56 | 53.62603 | 10.00371 | 45 ft | 8 kts | 272° |
| 2026-05-06 11:56 | 53.62603 | 10.00347 | 45 ft | 0 kts | 264° |
| 2026-05-06 11:57 | 53.62602 | 10.00341 | 44 ft | 2 kts | 264° |
| 2026-05-06 11:57 | 53.62608 | 10.00280 | 43 ft | 6 kts | 299° |
| 2026-05-06 11:58 | 53.62652 | 10.00258 | 43 ft | 7 kts | 332° |
| 2026-05-06 11:58 | 53.62710 | 10.00196 | 41 ft | 12 kts | 329° |
| 2026-05-06 11:58 | 53.62769 | 10.00137 | 38 ft | 11 kts | 330° |
| 2026-05-06 11:58 | 53.62820 | 10.00081 | 36 ft | 10 kts | 310° |
| 2026-05-06 11:59 | 53.62826 | 10.00069 | 36 ft | 0 kts | 307° |
| 2026-05-06 11:59 | 53.62829 | 10.00061 | 36 ft | 2 kts | 302° |
| 2026-05-06 11:59 | 53.62829 | 10.00012 | 35 ft | 6 kts | 243° |
| 2026-05-06 11:59 | 53.62814 | 9.99979 | 35 ft | 0 kts | 220° |
| 2026-05-06 12:00 | 53.62812 | 9.99976 | 35 ft | 0 kts | 220° |
| 2026-05-06 12:01 | 53.62811 | 9.99975 | 35 ft | 0 kts | 220° |
| 2026-05-06 12:02 | 53.62803 | 9.99962 | 35 ft | 2 kts | 219° |
| 2026-05-06 12:02 | 53.62786 | 9.99940 | 35 ft | 3 kts | 215° |
| 2026-05-06 12:02 | 53.62763 | 9.99914 | 35 ft | 4 kts | 210° |
| 2026-05-06 12:02 | 53.62733 | 9.99891 | 36 ft | 4 kts | 202° |
| 2026-05-06 12:03 | 53.62702 | 9.99867 | 37 ft | 5 kts | 206° |
| 2026-05-06 12:03 | 53.62700 | 9.99866 | 37 ft | 0 kts | 206° |
| 2026-05-06 12:04 | 53.62697 | 9.99863 | 37 ft | 1 kts | 205° |
| 2026-05-06 12:04 | 53.62683 | 9.99850 | 37 ft | 4 kts | 210° |
| 2026-05-06 12:05 | 53.62649 | 9.99794 | 38 ft | 7 kts | 240° |
| 2026-05-06 12:05 | 53.62631 | 9.99708 | 39 ft | 8 kts | 254° |
| 2026-05-06 12:05 | 53.62649 | 9.99621 | 38 ft | 10 kts | 323° |
| 2026-05-06 12:05 | 53.62695 | 9.99574 | 37 ft | 12 kts | 332° |
| 2026-05-06 12:06 | 53.62763 | 9.99520 | 36 ft | 14 kts | 338° |
| 2026-05-06 12:06 | 53.62859 | 9.99441 | 34 ft | 16 kts | 333° |
| 2026-05-06 12:06 | 53.62955 | 9.99359 | 32 ft | 2 kts | 333° |
| 2026-05-06 12:06 | 53.62964 | 9.99352 | 32 ft | 3 kts | 333° |
| 2026-05-06 12:07 | 53.62993 | 9.99328 | 31 ft | 6 kts | 333° |
| 2026-05-06 12:07 | 53.63034 | 9.99292 | 32 ft | 7 kts | 333° |
| 2026-05-06 12:07 | 53.63072 | 9.99241 | 33 ft | 6 kts | 306° |
| 2026-05-06 12:07 | 53.63090 | 9.99170 | 34 ft | 6 kts | 282° |
| 2026-05-06 12:08 | 53.63092 | 9.99090 | 34 ft | 7 kts | 267° |
| 2026-05-06 12:08 | 53.63089 | 9.98987 | 35 ft | 9 kts | 266° |
| 2026-05-06 12:08 | 53.63079 | 9.98918 | 36 ft | 0 kts | 234° |
| 2026-05-06 12:09 | 53.63078 | 9.98917 | 36 ft | 0 kts | 234° |
| 2026-05-06 12:09 | 53.63064 | 9.98883 | 36 ft | 5 kts | 233° |
| 2026-05-06 12:09 | 53.63018 | 9.98788 | 35 ft | 13 kts | 230° |
| 2026-05-06 12:10 | 53.62956 | 9.98662 | 38 ft | 15 kts | 230° |
| 2026-05-06 12:10 | 53.62875 | 9.98541 | 38 ft | 15 kts | 209° |
| 2026-05-06 12:10 | 53.62769 | 9.98478 | 38 ft | 16 kts | 186° |
| 2026-05-06 12:10 | 53.62676 | 9.98469 | 37 ft | 10 kts | 191° |
| 2026-05-06 12:11 | 53.62609 | 9.98389 | 36 ft | 13 kts | 227° |
| 2026-05-06 12:11 | 53.62547 | 9.98269 | 37 ft | 14 kts | 230° |
| 2026-05-06 12:11 | 53.62470 | 9.98140 | 35 ft | 16 kts | 223° |
| 2026-05-06 12:11 | 53.62379 | 9.97986 | 33 ft | 22 kts | 229° |
| 2026-05-06 12:12 | 53.62268 | 9.97762 | 32 ft | 27 kts | 230° |
| 2026-05-06 12:12 | 53.62139 | 9.97503 | 29 ft | 29 kts | 229° |
| 2026-05-06 12:12 | 53.62012 | 9.97247 | 31 ft | 27 kts | 231° |
| 2026-05-06 12:12 | 53.61893 | 9.97005 | 31 ft | 23 kts | 230° |
| 2026-05-06 12:13 | 53.61824 | 9.96863 | 31 ft | 15 kts | 230° |
| 2026-05-06 12:13 | 53.61750 | 9.96717 | 31 ft | 16 kts | 230° |
| 2026-05-06 12:13 | 53.61695 | 9.96603 | 32 ft | 12 kts | 232° |
| 2026-05-06 12:13 | 53.61682 | 9.96465 | 32 ft | 12 kts | 305° |
| 2026-05-06 12:14 | 53.61736 | 9.96421 | 34 ft | 0 kts | 352° |
| 2026-05-06 12:14 | 53.61755 | 9.96419 | 35 ft | 14 kts | 0° |
| 2026-05-06 12:15 | 53.61883 | 9.96518 | 34 ft | 33 kts | 51° |
| 2026-05-06 12:15 | 53.62032 | 9.96795 | 32 ft | 30 kts | 54° |
| 2026-05-06 12:15 | 53.62222 | 9.97170 | 28 ft | 74 kts | 50° |
| 2026-05-06 12:15 | 53.62719 | 9.98184 | 36 ft | 146 kts | 51° |
| 2026-05-06 12:16 | 53.63449 | 9.99686 | 299 ft | 180 kts | 51° |
| 2026-05-06 12:16 | 53.64235 | 10.01319 | 1183 ft | 181 kts | 51° |
| 2026-05-06 12:16 | 53.65001 | 10.02917 | 2182 ft | 180 kts | 51° |
| 2026-05-06 12:16 | 53.65801 | 10.04597 | 3007 ft | 191 kts | 52° |
| 2026-05-06 12:17 | 53.66634 | 10.06361 | 3836 ft | 202 kts | 52° |
| 2026-05-06 12:17 | 53.67528 | 10.08249 | 4639 ft | 217 kts | 50° |
| 2026-05-06 12:17 | 53.68826 | 10.09847 | 4915 ft | 246 kts | 20° |
| 2026-05-06 12:17 | 53.70567 | 10.10013 | 4967 ft | 259 kts | 348° |
| 2026-05-06 12:18 | 53.72137 | 10.08497 | 4974 ft | 270 kts | 315° |
| 2026-05-06 12:18 | 53.73121 | 10.05718 | 4994 ft | 277 kts | 298° |
| 2026-05-06 12:18 | 53.73941 | 10.02792 | 4997 ft | 278 kts | 298° |
| 2026-05-06 12:18 | 53.74767 | 9.99835 | 4988 ft | 278 kts | 294° |
| 2026-05-06 12:19 | 53.75039 | 9.96588 | 4978 ft | 282 kts | 263° |
| 2026-05-06 12:19 | 53.74423 | 9.93421 | 5030 ft | 285 kts | 246° |
| 2026-05-06 12:19 | 53.73593 | 9.90318 | 5482 ft | 294 kts | 245° |
| 2026-05-06 12:19 | 53.72759 | 9.87201 | 6508 ft | 291 kts | 246° |
| 2026-05-06 12:20 | 53.71951 | 9.84130 | 7443 ft | 290 kts | 246° |
| 2026-05-06 12:20 | 53.71144 | 9.81011 | 8315 ft | 292 kts | 247° |
| 2026-05-06 12:20 | 53.70346 | 9.77897 | 9160 ft | 293 kts | 247° |
| 2026-05-06 12:20 | 53.69540 | 9.74738 | 9988 ft | 294 kts | 247° |
| 2026-05-06 12:21 | 53.68729 | 9.71551 | 10670 ft | 300 kts | 247° |
| 2026-05-06 12:21 | 53.67878 | 9.68206 | 11045 ft | 317 kts | 247° |
| 2026-05-06 12:21 | 53.66987 | 9.64713 | 11361 ft | 335 kts | 247° |
| 2026-05-06 12:21 | 53.66015 | 9.60980 | 11818 ft | 347 kts | 245° |
| 2026-05-06 12:22 | 53.64877 | 9.57356 | 12542 ft | 351 kts | 240° |
| 2026-05-06 12:22 | 53.63549 | 9.53932 | 13275 ft | 354 kts | 236° |
| 2026-05-06 12:22 | 53.62117 | 9.50567 | 13952 ft | 358 kts | 235° |
| 2026-05-06 12:22 | 53.60645 | 9.47139 | 14593 ft | 362 kts | 234° |
| 2026-05-06 12:23 | 53.59195 | 9.43765 | 15236 ft | 366 kts | 234° |
| 2026-05-06 12:23 | 53.57730 | 9.40378 | 15923 ft | 366 kts | 234° |
| 2026-05-06 12:23 | 53.56208 | 9.36846 | 16730 ft | 364 kts | 234° |
| 2026-05-06 12:23 | 53.54775 | 9.33514 | 17373 ft | 365 kts | 232° |
| 2026-05-06 12:24 | 53.53364 | 9.30228 | 17930 ft | 368 kts | 232° |
| 2026-05-06 12:24 | 53.51905 | 9.26840 | 18503 ft | 370 kts | 232° |
| 2026-05-06 12:24 | 53.50415 | 9.23400 | 19124 ft | 371 kts | 232° |
| 2026-05-06 12:24 | 53.49627 | 9.21584 | 19432 ft | 373 kts | 233° |
| 2026-05-06 12:25 | 53.48090 | 9.18044 | 19946 ft | 376 kts | 232° |
| 2026-05-06 12:25 | 53.46542 | 9.14480 | 20498 ft | 378 kts | 233° |
| 2026-05-06 12:25 | 53.45011 | 9.10960 | 21006 ft | 381 kts | 233° |
| 2026-05-06 12:25 | 53.43406 | 9.07280 | 21477 ft | 385 kts | 232° |
| 2026-05-06 12:26 | 53.41816 | 9.03636 | 21991 ft | 388 kts | 232° |
| 2026-05-06 12:26 | 53.40214 | 8.99976 | 22478 ft | 390 kts | 233° |
| 2026-05-06 12:26 | 53.38601 | 8.96298 | 22959 ft | 393 kts | 233° |
| 2026-05-06 12:26 | 53.36988 | 8.92611 | 23417 ft | 396 kts | 233° |
| 2026-05-06 12:27 | 53.35472 | 8.88722 | 23878 ft | 400 kts | 239° |
| 2026-05-06 12:27 | 53.34179 | 8.84592 | 24300 ft | 404 kts | 244° |
| 2026-05-06 12:27 | 53.33109 | 8.80231 | 24705 ft | 407 kts | 248° |
| 2026-05-06 12:27 | 53.32119 | 8.75760 | 25120 ft | 411 kts | 249° |
| 2026-05-06 12:28 | 53.31123 | 8.71201 | 25540 ft | 413 kts | 249° |